createdAt,value
2018-10-03T00:00:42.545Z,80.00
2018-10-03T00:03:11.892Z,80.10
2018-10-03T00:05:41.260Z,80.30
2018-10-03T00:08:10.523Z,79.90
2018-10-03T00:10:39.841Z,80.20
2018-10-03T00:13:09.120Z,80.90
2018-10-03T00:15:38.451Z,80.30
2018-10-03T00:18:07.715Z,80.50
2018-10-03T00:20:37.112Z,80.40
2018-10-03T00:23:06.604Z,80.20
2018-10-03T00:25:35.881Z,80.50
2018-10-03T00:28:05.254Z,80.70
2018-10-03T00:30:34.578Z,80.80
2018-10-03T00:33:03.913Z,80.60
2018-10-03T00:35:33.173Z,81.00
2018-10-03T00:38:02.488Z,80.80
2018-10-03T00:40:31.756Z,80.90
2018-10-03T00:43:01.019Z,80.60
2018-10-03T00:45:30.322Z,80.80
2018-10-03T00:47:59.615Z,81.00
2018-10-03T00:50:28.868Z,81.10
2018-10-03T00:52:58.175Z,80.80
2018-10-03T00:55:27.424Z,80.80
2018-10-03T00:57:56.682Z,80.40
2018-10-03T01:00:25.956Z,80.30
2018-10-03T01:02:55.242Z,80.00
2018-10-03T01:05:24.506Z,79.60
2018-10-03T01:07:53.762Z,79.80
2018-10-03T01:10:23.041Z,80.10
2018-10-03T01:12:52.313Z,79.70
2018-10-03T01:15:21.583Z,79.80
2018-10-03T01:17:50.845Z,79.20
2018-10-03T01:20:20.096Z,78.90
2018-10-03T01:22:49.347Z,79.00
2018-10-03T01:25:18.609Z,78.80
2018-10-03T01:27:47.881Z,78.60
2018-10-03T01:30:17.199Z,78.90
2018-10-03T01:32:46.486Z,78.90
2018-10-03T01:35:15.732Z,78.60
2018-10-03T01:37:45.089Z,79.20
2018-10-03T01:40:14.433Z,79.10
2018-10-03T01:42:43.704Z,79.70
2018-10-03T01:45:12.975Z,80.90
2018-10-03T01:47:42.264Z,81.60
2018-10-03T01:50:11.539Z,82.00
2018-10-03T01:52:40.858Z,83.00
2018-10-03T01:55:10.159Z,83.70
2018-10-03T01:57:39.439Z,84.60
2018-10-03T02:00:08.770Z,85.20
2018-10-03T02:02:38.042Z,85.50
2018-10-03T02:05:07.337Z,85.40
2018-10-03T02:07:36.620Z,86.40
2018-10-03T02:10:05.901Z,86.30
2018-10-03T02:12:35.181Z,86.40
2018-10-03T02:15:04.461Z,86.60
2018-10-03T02:17:33.737Z,86.80
2018-10-03T02:20:03.002Z,87.00
2018-10-03T02:22:32.259Z,86.90
2018-10-03T02:25:01.525Z,86.70
2018-10-03T02:27:30.829Z,86.40
2018-10-03T02:30:00.074Z,86.30
2018-10-03T02:32:30.231Z,86.40
2018-10-03T02:34:59.585Z,85.70
2018-10-03T02:37:28.855Z,85.50
2018-10-03T02:39:58.160Z,85.30
2018-10-03T02:42:27.446Z,85.50
2018-10-03T02:44:56.743Z,85.10
2018-10-03T02:47:26.067Z,85.20
2018-10-03T02:49:55.375Z,85.10
2018-10-03T02:52:24.685Z,84.80
2018-10-03T02:54:54.082Z,84.80
2018-10-03T02:57:23.370Z,84.40
2018-10-03T02:59:52.651Z,84.40
2018-10-03T03:02:21.939Z,84.50
2018-10-03T03:04:51.274Z,84.30
2018-10-03T03:07:20.554Z,84.40
2018-10-03T03:09:49.895Z,84.10
2018-10-03T03:12:19.242Z,84.40
2018-10-03T03:14:48.532Z,84.40
2018-10-03T03:17:17.823Z,83.90
2018-10-03T03:19:47.165Z,83.60
2018-10-03T03:22:16.425Z,83.70
2018-10-03T03:24:45.707Z,83.80
2018-10-03T03:27:14.998Z,83.20
2018-10-03T03:29:44.325Z,83.40
2018-10-03T03:32:13.607Z,83.60
2018-10-03T03:34:42.958Z,82.80
2018-10-03T03:37:12.250Z,82.70
2018-10-03T03:39:41.576Z,82.70
2018-10-03T03:42:10.923Z,82.90
2018-10-03T03:44:40.206Z,82.90
2018-10-03T03:47:09.516Z,82.70
2018-10-03T03:49:38.827Z,82.70
2018-10-03T03:52:08.097Z,82.70
2018-10-03T03:54:37.398Z,82.50
2018-10-03T03:57:06.763Z,82.50
2018-10-03T03:59:36.067Z,82.50
2018-10-03T04:02:05.368Z,82.70
2018-10-03T04:04:34.694Z,82.60
2018-10-03T04:07:04.011Z,82.00
2018-10-03T04:09:33.342Z,82.10
2018-10-03T04:12:02.625Z,82.20
2018-10-03T04:14:31.895Z,81.90
2018-10-03T04:17:01.219Z,82.50
2018-10-03T04:19:30.471Z,83.50
2018-10-03T04:21:59.742Z,82.30
2018-10-03T04:24:29.021Z,82.10
2018-10-03T04:26:58.362Z,82.10
2018-10-03T04:29:27.696Z,81.80
2018-10-03T04:31:56.978Z,81.90
2018-10-03T04:34:26.280Z,82.30
2018-10-03T04:36:55.568Z,82.10
2018-10-03T04:39:24.902Z,82.30
2018-10-03T04:41:54.208Z,81.90
2018-10-03T04:44:23.520Z,81.90
2018-10-03T04:46:52.863Z,82.00
2018-10-03T04:49:22.164Z,81.40
2018-10-03T04:51:51.459Z,81.40
2018-10-03T04:54:20.771Z,81.80
2018-10-03T04:56:50.067Z,82.10
2018-10-03T04:59:19.369Z,81.80
2018-10-03T05:01:48.715Z,81.80
2018-10-03T05:04:17.991Z,81.70
2018-10-03T05:06:47.309Z,82.00
2018-10-03T05:09:16.628Z,81.90
2018-10-03T05:11:45.921Z,82.40
2018-10-03T05:14:15.207Z,81.90
2018-10-03T05:16:44.539Z,82.00
2018-10-03T05:19:13.820Z,82.30
2018-10-03T05:21:43.124Z,82.00
2018-10-03T05:24:12.419Z,81.90
2018-10-03T05:26:41.743Z,82.60
2018-10-03T05:29:11.019Z,82.30
2018-10-03T05:31:40.303Z,82.50
2018-10-03T05:34:09.589Z,82.30
2018-10-03T05:36:39.036Z,82.40
2018-10-03T05:39:11.416Z,82.00
2018-10-03T05:41:40.797Z,82.20
2018-10-03T05:44:10.619Z,82.20
2018-10-03T05:46:40.431Z,82.60
2018-10-03T05:49:09.737Z,82.80
2018-10-03T05:51:39.232Z,82.40
2018-10-03T05:54:08.600Z,82.20
2018-10-03T05:56:37.853Z,82.60
2018-10-03T05:59:07.114Z,82.50
2018-10-03T06:01:36.419Z,82.60
2018-10-03T06:04:05.688Z,82.40
2018-10-03T06:06:35.052Z,82.40
2018-10-03T06:09:06.050Z,82.00
2018-10-03T06:11:35.301Z,82.10
2018-10-03T06:14:04.565Z,82.50
2018-10-03T06:16:33.842Z,82.30
2018-10-03T06:19:03.112Z,82.20
2018-10-03T06:21:32.706Z,81.90
2018-10-03T06:24:01.990Z,81.90
2018-10-03T06:26:31.259Z,81.90
2018-10-03T06:29:00.575Z,81.60
2018-10-03T06:31:29.850Z,82.00
2018-10-03T06:33:59.156Z,82.00
2018-10-03T06:36:28.431Z,82.00
2018-10-03T06:38:57.676Z,82.20
2018-10-03T06:41:27.018Z,82.40
2018-10-03T06:43:56.275Z,82.70
2018-10-03T06:46:25.587Z,82.00
2018-10-03T06:48:54.874Z,82.10
2018-10-03T06:51:24.190Z,81.90
2018-10-03T06:53:53.494Z,82.50
2018-10-03T06:56:22.842Z,82.50
2018-10-03T06:58:52.219Z,82.40
2018-10-03T07:01:21.630Z,81.70
2018-10-03T07:03:50.978Z,81.70
2018-10-03T07:06:20.294Z,81.90
2018-10-03T07:08:49.721Z,82.00
2018-10-03T07:11:19.044Z,82.80
2018-10-03T07:13:48.397Z,82.10
2018-10-03T07:16:18.130Z,81.90
2018-10-03T07:18:47.457Z,81.90
2018-10-03T07:21:16.855Z,81.90
2018-10-03T07:23:46.250Z,82.70
2018-10-03T07:26:15.543Z,82.00
2018-10-03T07:28:44.884Z,81.80
2018-10-03T07:31:14.245Z,82.00
2018-10-03T07:33:43.686Z,81.60
2018-10-03T07:36:13.160Z,81.50
2018-10-03T07:38:42.464Z,80.90
2018-10-03T07:41:11.862Z,81.10
2018-10-03T07:43:41.205Z,80.70
2018-10-03T07:46:10.476Z,80.80
2018-10-03T07:48:39.744Z,80.70
2018-10-03T07:51:09.042Z,80.30
2018-10-03T07:53:38.494Z,80.10
2018-10-03T07:56:07.877Z,80.30
2018-10-03T07:58:37.137Z,79.60
2018-10-03T08:01:06.490Z,80.30
2018-10-03T08:03:35.841Z,79.30
2018-10-03T08:06:05.140Z,78.80
2018-10-03T08:08:34.691Z,79.30
2018-10-03T08:11:03.994Z,78.70
2018-10-03T08:13:33.295Z,79.10
2018-10-03T08:16:02.621Z,79.60
2018-10-03T08:18:31.981Z,78.50
2018-10-03T08:21:01.281Z,78.70
2018-10-03T08:23:30.588Z,79.10
2018-10-03T08:25:59.981Z,77.60
2018-10-03T08:28:29.401Z,77.10
2018-10-03T08:30:58.707Z,75.70
2018-10-03T08:33:27.997Z,75.50
2018-10-03T08:35:57.350Z,74.50
2018-10-03T08:38:26.720Z,74.20
2018-10-03T08:40:56.128Z,74.50
2018-10-03T08:43:25.428Z,72.60
2018-10-03T08:45:54.709Z,72.70
2018-10-03T08:48:23.962Z,71.30
2018-10-03T08:50:53.245Z,70.90
2018-10-03T08:53:22.509Z,70.30
2018-10-03T08:55:51.781Z,71.10
2018-10-03T08:58:21.340Z,71.80
2018-10-03T09:00:50.690Z,72.90
2018-10-03T09:03:19.957Z,73.10
2018-10-03T09:05:49.243Z,73.20
2018-10-03T09:08:18.502Z,73.60
2018-10-03T09:10:48.660Z,71.40
2018-10-03T09:13:18.041Z,70.50
2018-10-03T09:15:47.320Z,70.60
2018-10-03T09:18:22.891Z,69.50
2018-10-03T09:20:52.202Z,68.30
2018-10-03T09:23:21.486Z,69.60
2018-10-03T09:25:50.782Z,68.40
2018-10-03T09:28:20.183Z,67.50
2018-10-03T09:30:49.388Z,67.10
2018-10-03T09:33:18.747Z,67.20
2018-10-03T09:35:48.139Z,67.00
2018-10-03T09:38:17.419Z,64.30
2018-10-03T09:40:46.731Z,64.80
2018-10-03T09:43:16.133Z,66.20
2018-10-03T09:45:45.445Z,68.20
2018-10-03T09:48:14.760Z,70.00
2018-10-03T09:50:44.052Z,69.80
2018-10-03T09:53:13.353Z,68.90
2018-10-03T09:55:42.675Z,69.60
2018-10-03T09:58:11.953Z,68.90
2018-10-03T10:00:46.524Z,68.30
2018-10-03T10:03:15.861Z,67.50
2018-10-03T10:05:45.178Z,67.70
2018-10-03T10:08:14.490Z,68.40
2018-10-03T10:10:43.841Z,68.50
2018-10-03T10:13:13.333Z,68.30
2018-10-03T10:15:42.725Z,68.00
2018-10-03T10:18:12.096Z,68.50
2018-10-03T10:20:41.597Z,68.00
2018-10-03T10:23:11.025Z,69.70
2018-10-03T10:25:43.939Z,69.40
2018-10-03T10:28:13.313Z,67.90
2018-10-03T10:30:42.788Z,68.90
2018-10-03T10:33:12.408Z,70.10
2018-10-03T10:35:41.800Z,69.70
2018-10-03T10:38:11.125Z,69.60
2018-10-03T10:40:40.570Z,70.90
2018-10-03T10:43:09.944Z,70.60
2018-10-03T10:45:39.399Z,70.30
2018-10-03T10:48:08.652Z,71.40
2018-10-03T10:50:38.099Z,71.70
2018-10-03T10:53:07.463Z,72.60
2018-10-03T10:55:36.809Z,74.20
2018-10-03T10:58:06.308Z,76.10
2018-10-03T11:00:36.127Z,76.70
2018-10-03T11:03:05.509Z,76.90
2018-10-03T11:05:35.024Z,76.30
2018-10-03T11:08:04.834Z,76.30
2018-10-03T11:10:34.373Z,76.10
2018-10-03T11:13:03.755Z,76.60
2018-10-03T11:15:33.648Z,76.30
2018-10-03T11:18:03.235Z,76.80
2018-10-03T11:20:32.603Z,77.60
2018-10-03T11:23:02.205Z,77.50
2018-10-03T11:25:31.851Z,76.90
2018-10-03T11:28:01.457Z,76.80
2018-10-03T11:30:30.855Z,77.10
2018-10-03T11:33:00.767Z,77.20
2018-10-03T11:35:30.121Z,76.60
2018-10-03T11:37:59.438Z,76.80
2018-10-03T11:40:28.808Z,77.50
2018-10-03T11:42:58.160Z,77.90
2018-10-03T11:45:34.388Z,76.10
2018-10-03T11:48:03.787Z,72.00
2018-10-03T11:50:36.413Z,68.90
2018-10-03T11:53:05.679Z,68.50
2018-10-03T11:55:34.985Z,67.50
2018-10-03T11:58:04.316Z,68.60
2018-10-03T12:00:33.761Z,69.10
2018-10-03T12:03:03.174Z,68.20
2018-10-03T12:05:32.355Z,68.60
2018-10-03T12:08:01.703Z,68.50
2018-10-03T12:10:31.053Z,67.70
2018-10-03T12:13:00.467Z,68.70
2018-10-03T12:15:29.749Z,68.00
2018-10-03T12:17:59.149Z,68.00
2018-10-03T12:20:28.453Z,67.30
2018-10-03T12:22:57.826Z,64.10
2018-10-03T12:25:27.139Z,61.50
2018-10-03T12:27:56.459Z,60.40
2018-10-03T12:30:25.806Z,59.70
2018-10-03T12:32:55.089Z,61.00
2018-10-03T12:35:29.646Z,61.20
2018-10-03T12:37:58.988Z,62.60
2018-10-03T12:40:28.536Z,64.80
2018-10-03T12:42:57.970Z,66.10
2018-10-03T12:45:27.990Z,67.70
2018-10-03T12:47:57.856Z,69.00
2018-10-03T12:50:27.533Z,66.00
2018-10-03T12:52:56.845Z,62.60
2018-10-03T12:55:26.880Z,62.10
2018-10-03T12:57:56.195Z,62.50
2018-10-03T13:00:30.241Z,61.10
2018-10-03T13:03:00.558Z,60.20
2018-10-03T13:05:30.040Z,59.20
2018-10-03T13:07:59.983Z,58.90
2018-10-03T13:10:30.380Z,57.90
2018-10-03T13:12:59.827Z,56.50
2018-10-03T13:15:29.242Z,55.90
2018-10-03T13:17:58.671Z,53.00
2018-10-03T13:20:28.055Z,51.70
2018-10-03T13:22:57.467Z,49.10
2018-10-03T13:25:26.863Z,48.00
2018-10-03T13:27:56.170Z,49.80
2018-10-03T13:30:25.570Z,48.60
2018-10-03T13:32:54.868Z,49.20
2018-10-03T13:35:24.149Z,49.00
2018-10-03T13:37:53.498Z,48.30
2018-10-03T13:40:22.785Z,48.80
2018-10-03T13:42:52.155Z,48.90
2018-10-03T13:45:21.467Z,47.90
2018-10-03T13:47:50.788Z,47.10
2018-10-03T13:50:20.111Z,45.50
2018-10-03T13:52:49.437Z,45.00
2018-10-03T13:55:18.757Z,46.70
2018-10-03T13:57:48.224Z,47.20
2018-10-03T14:00:17.594Z,46.10
2018-10-03T14:02:46.991Z,46.00
2018-10-03T14:05:16.250Z,46.70
2018-10-03T14:07:46.973Z,46.90
2018-10-03T14:10:17.183Z,47.70
2018-10-03T14:12:47.193Z,47.40
2018-10-03T14:15:16.518Z,48.20
2018-10-03T14:17:45.818Z,48.50
2018-10-03T14:20:15.248Z,48.30
2018-10-03T14:22:44.523Z,48.80
2018-10-03T14:25:13.848Z,49.60
2018-10-03T14:27:43.990Z,49.10
2018-10-03T14:30:13.342Z,48.60
2018-10-03T14:32:42.794Z,49.90
2018-10-03T14:35:12.143Z,52.10
2018-10-03T14:37:43.954Z,52.60
2018-10-03T14:40:13.996Z,52.60
2018-10-03T14:42:43.316Z,54.30
2018-10-03T14:45:12.547Z,54.20
2018-10-03T14:47:41.910Z,53.90
2018-10-03T14:50:11.235Z,55.10
2018-10-03T14:52:40.794Z,55.00
2018-10-03T14:55:10.015Z,54.50
2018-10-03T14:57:39.324Z,55.50
2018-10-03T15:00:09.531Z,55.90
2018-10-03T15:02:38.777Z,55.30
2018-10-03T15:05:08.753Z,54.60
2018-10-03T15:07:38.271Z,54.40
2018-10-03T15:10:07.799Z,54.80
2018-10-03T15:12:37.174Z,59.80
2018-10-03T15:15:06.881Z,61.30
2018-10-03T15:17:36.212Z,62.30
2018-10-03T15:20:06.411Z,62.60
2018-10-03T15:22:35.670Z,63.50
2018-10-03T15:25:04.920Z,64.40
2018-10-03T15:27:34.259Z,64.90
2018-10-03T15:30:03.689Z,65.70
2018-10-03T15:32:32.960Z,65.90
2018-10-03T15:35:03.126Z,67.40
2018-10-03T15:37:32.569Z,67.30
2018-10-03T15:40:02.358Z,67.80
2018-10-03T15:42:31.707Z,67.80
2018-10-03T15:45:01.110Z,63.90
2018-10-03T15:47:31.227Z,62.60
2018-10-03T15:50:00.657Z,62.90
2018-10-03T15:52:29.994Z,65.50
2018-10-03T15:54:59.826Z,67.40
2018-10-03T15:57:29.120Z,68.00
2018-10-03T15:59:58.523Z,68.40
2018-10-03T16:02:27.918Z,69.30
2018-10-03T16:04:57.798Z,68.40
2018-10-03T16:07:27.102Z,68.40
2018-10-03T16:09:56.534Z,67.50
2018-10-03T16:12:25.833Z,69.30
2018-10-03T16:14:55.126Z,69.90
2018-10-03T16:17:24.739Z,70.70
2018-10-03T16:19:54.020Z,71.20
2018-10-03T16:22:23.406Z,72.00
2018-10-03T16:24:52.679Z,72.10
2018-10-03T16:27:22.009Z,72.80
2018-10-03T16:29:51.315Z,72.90
2018-10-03T16:32:20.656Z,72.60
2018-10-03T16:34:49.893Z,73.00
2018-10-03T16:37:19.183Z,73.40
2018-10-03T16:39:48.443Z,73.80
2018-10-03T16:42:17.713Z,74.10
2018-10-03T16:44:46.985Z,74.60
2018-10-03T16:47:16.293Z,74.70
2018-10-03T16:49:45.604Z,75.30
2018-10-03T16:52:14.885Z,75.40
2018-10-03T16:54:44.237Z,75.60
2018-10-03T16:57:13.797Z,75.80
2018-10-03T16:59:43.077Z,76.80
2018-10-03T17:02:12.427Z,76.60
2018-10-03T17:04:41.813Z,76.70
2018-10-03T17:07:11.124Z,77.10
2018-10-03T17:09:41.049Z,77.90
2018-10-03T17:12:10.395Z,77.40
2018-10-03T17:14:40.271Z,77.70
2018-10-03T17:17:10.350Z,78.00
2018-10-03T17:19:39.870Z,78.70
2018-10-03T17:22:09.790Z,79.00
2018-10-03T17:24:39.633Z,80.30
2018-10-03T17:27:08.983Z,80.00
2018-10-03T17:29:38.247Z,79.90
2018-10-03T17:32:07.609Z,79.70
2018-10-03T17:34:36.903Z,79.20
2018-10-03T17:37:06.348Z,79.30
2018-10-03T17:39:35.701Z,79.80
2018-10-03T17:42:04.969Z,79.30
2018-10-03T17:44:34.323Z,79.10
2018-10-03T17:47:03.597Z,78.90
2018-10-03T17:49:32.955Z,79.10
2018-10-03T17:52:02.303Z,79.30
2018-10-03T17:54:31.786Z,79.80
2018-10-03T17:57:01.132Z,80.30
2018-10-03T17:59:30.448Z,80.20
2018-10-03T18:02:02.769Z,80.60
2018-10-03T18:04:32.043Z,80.50
2018-10-03T18:07:01.533Z,81.20
2018-10-03T18:09:30.855Z,81.20
2018-10-03T18:12:00.159Z,81.90
2018-10-03T18:14:29.422Z,82.60
2018-10-03T18:16:58.722Z,82.60
2018-10-03T18:19:28.007Z,83.40
2018-10-03T18:21:57.371Z,84.40
2018-10-03T18:24:26.678Z,85.50
2018-10-03T18:26:55.962Z,86.60
2018-10-03T18:29:25.238Z,87.30
2018-10-03T18:31:54.575Z,88.50
2018-10-03T18:34:23.920Z,89.30
2018-10-03T18:36:53.284Z,87.70
2018-10-03T18:39:22.669Z,88.40
2018-10-03T18:41:51.978Z,87.30
2018-10-03T18:44:21.269Z,85.80
2018-10-03T18:46:50.657Z,84.20
2018-10-03T18:49:20.084Z,82.70
2018-10-03T18:51:49.498Z,81.80
2018-10-03T18:54:18.784Z,81.50
2018-10-03T18:56:48.070Z,81.50
2018-10-03T18:59:17.353Z,82.90
2018-10-03T19:01:46.694Z,83.80
2018-10-03T19:04:16.037Z,85.20
2018-10-03T19:06:45.388Z,86.50
2018-10-03T19:09:14.755Z,88.10
2018-10-03T19:11:44.111Z,88.80
2018-10-03T19:14:13.421Z,89.10
2018-10-03T19:16:42.720Z,90.00
2018-10-03T19:19:12.800Z,90.30
2018-10-03T19:21:42.061Z,90.00
2018-10-03T19:24:11.380Z,90.10
2018-10-03T19:26:40.786Z,90.60
2018-10-03T19:29:10.029Z,90.80
2018-10-03T19:31:39.408Z,91.10
2018-10-03T19:34:08.824Z,91.30
2018-10-03T19:36:38.141Z,91.40
2018-10-03T19:39:08.321Z,91.40
2018-10-03T19:41:38.034Z,91.40
2018-10-03T19:44:07.455Z,91.80
2018-10-03T19:46:36.739Z,91.60
2018-10-03T19:49:06.025Z,91.70
2018-10-03T19:51:35.279Z,91.70
2018-10-03T19:54:04.962Z,92.10
2018-10-03T19:56:34.246Z,92.30
2018-10-03T19:59:03.575Z,92.30
2018-10-03T20:01:32.838Z,92.40
2018-10-03T20:04:02.113Z,92.50
2018-10-03T20:06:31.439Z,92.40
2018-10-03T20:09:00.706Z,92.40
2018-10-03T20:11:29.966Z,92.30
2018-10-03T20:13:59.388Z,92.50
2018-10-03T20:16:28.605Z,92.40
2018-10-03T20:18:57.986Z,92.60
2018-10-03T20:21:27.255Z,92.60
2018-10-03T20:23:56.556Z,92.70
2018-10-03T20:26:25.910Z,92.60
2018-10-03T20:28:55.312Z,92.70
2018-10-03T20:31:24.611Z,92.60
2018-10-03T20:33:54.968Z,92.50
2018-10-03T20:36:24.458Z,92.30
2018-10-03T20:38:53.779Z,92.60
2018-10-03T20:41:23.044Z,92.60
2018-10-03T20:43:52.386Z,92.90
2018-10-03T20:46:21.789Z,92.90
2018-10-03T20:48:51.168Z,92.90
2018-10-03T20:51:20.603Z,93.10
2018-10-03T20:53:49.920Z,93.20
2018-10-03T20:56:19.231Z,93.00
2018-10-03T20:58:48.659Z,93.10
2018-10-03T21:01:18.075Z,93.00
2018-10-03T21:03:47.415Z,93.10
2018-10-03T21:06:16.734Z,93.00
2018-10-03T21:08:46.095Z,92.80
2018-10-03T21:11:15.390Z,92.90
2018-10-03T21:13:44.745Z,92.90
2018-10-03T21:16:14.185Z,93.10
2018-10-03T21:18:43.479Z,92.90
2018-10-03T21:21:13.590Z,92.90
2018-10-03T21:23:42.849Z,92.80
2018-10-03T21:26:12.291Z,92.80
2018-10-03T21:28:41.578Z,92.60
2018-10-03T21:31:10.886Z,92.50
2018-10-03T21:33:40.196Z,92.20
2018-10-03T21:36:09.530Z,92.10
2018-10-03T21:38:38.842Z,92.00
2018-10-03T21:41:08.208Z,92.00
2018-10-03T21:43:37.724Z,92.30
2018-10-03T21:46:07.137Z,92.30
2018-10-03T21:48:36.497Z,92.50
2018-10-03T21:51:05.855Z,92.50
2018-10-03T21:53:35.335Z,92.60
2018-10-03T21:56:04.623Z,92.60
2018-10-03T21:58:33.973Z,92.40
2018-10-03T22:01:03.415Z,92.90
2018-10-03T22:03:32.687Z,92.60
2018-10-03T22:06:01.990Z,92.50
2018-10-03T22:08:31.284Z,92.70
2018-10-03T22:11:00.579Z,92.60
2018-10-03T22:13:29.848Z,92.80
2018-10-03T22:15:59.160Z,93.10
2018-10-03T22:18:28.471Z,93.30
2018-10-03T22:20:57.748Z,93.40
2018-10-03T22:23:27.020Z,93.40
2018-10-03T22:25:56.342Z,93.10
2018-10-03T22:28:37.903Z,93.00
2018-10-03T22:31:07.265Z,93.00
2018-10-03T22:33:36.578Z,93.10
2018-10-03T22:36:05.857Z,93.10
2018-10-03T22:38:35.546Z,93.10
2018-10-03T22:41:04.892Z,93.40
2018-10-03T22:43:34.353Z,93.60
2018-10-03T22:46:03.657Z,93.50
2018-10-03T22:48:32.969Z,93.30
2018-10-03T22:51:02.356Z,92.90
2018-10-03T22:53:31.585Z,92.80
2018-10-03T22:56:00.864Z,93.00
2018-10-03T22:58:30.161Z,93.20
2018-10-03T23:00:59.431Z,93.10
2018-10-03T23:03:28.744Z,93.40
2018-10-03T23:05:58.049Z,93.40
2018-10-03T23:08:27.637Z,93.30
2018-10-03T23:10:56.968Z,93.30
2018-10-03T23:13:26.374Z,93.60
2018-10-03T23:15:55.682Z,94.10
2018-10-03T23:18:25.082Z,94.20
2018-10-03T23:20:54.403Z,94.30
2018-10-03T23:23:29.990Z,94.50
2018-10-03T23:25:59.287Z,94.30
2018-10-03T23:28:28.610Z,94.70
2018-10-03T23:30:57.908Z,94.60
2018-10-03T23:33:27.189Z,94.50
2018-10-03T23:35:56.487Z,94.50
2018-10-03T23:38:25.779Z,94.40
2018-10-03T23:40:55.418Z,94.40
2018-10-03T23:43:24.899Z,94.50
2018-10-03T23:45:54.200Z,94.40
2018-10-03T23:48:23.520Z,94.20
2018-10-03T23:50:52.867Z,94.10
2018-10-03T23:53:22.437Z,94.30
2018-10-03T23:55:51.786Z,94.00
2018-10-03T23:58:21.089Z,94.00
